関西国際空港の過去48時間の天気

関西国際空港 (Kansai intl)

現在時刻: 9/24 13:43 JST (9/24 04:43 UTC) 以下の時間は現地時間です。

過去48時間のMETAR気象情報
時間 風向 風速(m/s) 視程 気温(℃) 湿度(%) 気圧(hPa) 天気現象
24 13:00 北西 5 10km以上 26 65 1015
24 12:30 西北西 4 10km以上 25 69 1015
24 12:00 西北西 3 10km以上 25 74 1016 周辺でしゅう雨
24 11:30 西北西 2 10km以上 25 69 1016 周辺でしゅう雨
24 11:00 北西 2 10km以上 24 78 1016
24 10:30 北北西 3 10km以上 24 78 1016
24 10:00 北北西 3 10km以上 24 74 1016
24 09:30 2 10km以上 24 78 1015
24 09:00 2 10km以上 23 83 1016
24 08:30 北北東 2 10km以上 23 83 1016
24 08:00 不定 1 10km以上 23 83 1016
24 07:30 不定 1 10km以上 23 83 1015
24 07:00 静穏 0 10km以上 22 83 1015
24 06:30 南東 2 10km以上 22 83 1015
24 06:00 南東 2 10km以上 22 88 1015
24 05:30 2 10km以上 22 88 1015
24 05:00 東南東 1 10km以上 22 83 1015
24 04:30 2 10km以上 22 88 1015
24 04:00 南東 2 10km以上 22 88 1015
24 03:30 南東 4 10km以上 22 88 1015
24 03:00 南東 2 10km以上 22 88 1015
24 02:30 3 10km以上 22 88 1015
24 02:00 北西 2 10km以上 23 83 1015
24 01:30 西北西 2 10km以上 22 88 1015
24 01:00 南南西 1 10km以上 22 88 1015
24 00:30 不定 1 10km以上 22 83 1015
24 00:00 南東 1 10km以上 23 83 1015
23 23:30 3 10km以上 23 83 1015
23 23:00 3 10km以上 23 83 1015
23 22:30 西南西 3 10km以上 23 83 1016
23 22:00 南南西 2 10km以上 23 83 1016
23 21:30 2 10km以上 23 83 1016
23 21:00 2 10km以上 23 83 1016
23 20:30 南南東 3 10km以上 23 83 1015
23 20:00 南南東 3 10km以上 23 89 1015
23 19:30 不定 1 10km以上 24 74 1015
23 19:00 西北西 4 10km以上 25 69 1015
23 18:30 西北西 4 10km以上 25 69 1015
23 18:00 西北西 4 10km以上 25 69 1015
23 17:30 北西 3 10km以上 25 65 1015
23 17:00 西北西 4 10km以上 26 61 1015
23 16:30 北西 5 10km以上 26 65 1015
23 16:00 北西 5 10km以上 26 58 1014
23 15:30 北西 5 10km以上 26 61 1014
23 15:00 北西 3 10km以上 27 58 1014
23 14:30 北西 4 10km以上 26 58 1015
23 14:00 北西 5 10km以上 26 61 1015
23 13:30 北北西 4 10km以上 26 61 1015
23 13:00 北西 5 10km以上 26 61 1016
23 12:30 北西 4 10km以上 26 61 1016
23 12:00 北西 3 10km以上 26 65 1016
23 11:30 北西 3 10km以上 26 65 1017
23 11:00 3 10km以上 26 70 1017
23 10:30 4 10km以上 25 69 1017
23 10:00 4 10km以上 25 74 1017
23 09:30 北北東 4 10km以上 24 78 1017
23 09:00 北北東 4 10km以上 24 78 1017
23 08:30 北北東 3 10km以上 23 78 1017
23 08:00 北東 4 10km以上 23 83 1016
23 07:30 北東 5 10km以上 22 83 1016
23 07:00 北東 4 10km以上 22 83 1016
23 06:30 北東 4 10km以上 21 88 1016
23 06:00 東北東 4 10km以上 21 88 1016
23 05:30 東北東 4 10km以上 21 88 1016
23 05:00 東北東 4 10km以上 21 88 1015
23 03:30 東北東 4 10km以上 22 83 1015
RJBB 240400Z 31009KT 9999 FEW025 SCT045 BKN140 26/19 Q1015 NOSIG
RJBB 240330Z 29008KT 9999 FEW025 SCT045 BKN140 25/19 Q1015 NOSIG
RJBB 240300Z 30006KT 9999 VCSH FEW025 SCT045 BKN120 25/20 Q1016 NOSIG
RJBB 240230Z 30003KT 9999 VCSH FEW025 SCT045 BKN120 25/19 Q1016 NOSIG
RJBB 240200Z 32004KT 290V350 9999 FEW025 SCT045 BKN120 24/20 Q1016 NOSIG
RJBB 240130Z 33005KT 9999 FEW025 SCT080 BKN120 24/20 Q1016 NOSIG
RJBB 240100Z 33005KT 310V030 9999 FEW025 BKN120 BKN160 24/19 Q1016 NOSIG
RJBB 240030Z 01004KT 9999 FEW025 SCT120 BKN160 24/20 Q1015 NOSIG
RJBB 240000Z 35004KT 330V040 9999 FEW025 BKN170 23/20 Q1016 NOSIG
RJBB 232330Z 03003KT 9999 FEW025 BKN170 23/20 Q1016 NOSIG
RJBB 232300Z VRB02KT 9999 FEW025 BKN140 23/20 Q1016 NOSIG
RJBB 232230Z VRB02KT 9999 FEW025 SCT140 23/20 Q1015 NOSIG
RJBB 232200Z 00000KT 9999 FEW005 SCT150 22/19 Q1015 NOSIG
RJBB 232130Z 13003KT 9999 FEW005 SCT160 22/19 Q1015 NOSIG
RJBB 232100Z 14003KT CAVOK 22/20 Q1015 NOSIG
RJBB 232030Z AUTO 10003KT 9999 NSC 22/20 Q1015 NOSIG
RJBB 232000Z AUTO 11002KT 9999 NSC 22/19 Q1015 NOSIG
RJBB 231930Z AUTO 10004KT 9999 NSC 22/20 Q1015 NOSIG
RJBB 231900Z AUTO 13004KT 9999 NSC 22/20 Q1015 NOSIG
RJBB 231830Z AUTO 14007KT 9999 NCD 22/20 Q1015 BECMG 12004KT
RJBB 231800Z AUTO 14004KT 9999 FEW035 22/20 Q1015 NOSIG
RJBB 231730Z AUTO 36005KT 330V060 9999 FEW023 BKN035 BKN220 22/20 Q1015 NOSIG
RJBB 231700Z AUTO 31004KT 9999 SCT044 23/20 Q1015 NOSIG
RJBB 231630Z AUTO 29003KT 9999 NCD 22/20 Q1015 NOSIG
RJBB 231600Z AUTO 20002KT 9999 NCD 22/20 Q1015 NOSIG
RJBB 231530Z AUTO VRB01KT 9999 NSC 22/19 Q1015 NOSIG
RJBB 231500Z AUTO 14002KT 9999 NSC 23/20 Q1015 NOSIG
RJBB 231430Z AUTO 17006KT 9999 NSC 23/20 Q1015 NOSIG
RJBB 231400Z AUTO 18005KT 9999 NSC 23/20 Q1015 NOSIG
RJBB 231330Z 24005KT CAVOK 23/20 Q1016 NOSIG
RJBB 231300Z 20003KT 160V220 CAVOK 23/20 Q1016 NOSIG
RJBB 231230Z 17004KT 130V200 CAVOK 23/20 Q1016 NOSIG
RJBB 231200Z 18003KT 130V230 CAVOK 23/20 Q1016 NOSIG
RJBB 231130Z 15006KT CAVOK 23/20 Q1015 NOSIG
RJBB 231100Z 15006KT CAVOK 23/21 Q1015 BECMG 12004KT
RJBB 231030Z VRB02KT CAVOK 24/19 Q1015 NOSIG
RJBB 231000Z 30007KT 9999 FEW040 BKN160 25/19 Q1015 NOSIG
RJBB 230930Z 30007KT 9999 FEW040 BKN160 25/19 Q1015 NOSIG
RJBB 230900Z 30007KT 9999 FEW040 BKN150 25/19 Q1015 NOSIG
RJBB 230830Z 31006KT 9999 FEW030 BKN150 25/18 Q1015 NOSIG
RJBB 230800Z 30007KT 9999 FEW030 BKN150 26/18 Q1015 NOSIG
RJBB 230730Z 31010KT 9999 FEW030 SCT160 BKN/// 26/19 Q1015 NOSIG
RJBB 230700Z 32009KT 9999 FEW030 BKN/// 26/17 Q1014 BECMG 31008KT
RJBB 230630Z 32009KT 9999 FEW030 BKN160 26/18 Q1014 BECMG 31008KT
RJBB 230600Z 32006KT 9999 FEW025 BKN160 27/18 Q1014 BECMG 30006KT
RJBB 230530Z 32008KT 9999 FEW020 BKN160 26/17 Q1015 BECMG 30007KT
RJBB 230500Z 32009KT 9999 FEW025 BKN160 26/18 Q1015 BECMG 30007KT
RJBB 230430Z 33008KT 9999 FEW025 BKN180 26/18 Q1015 BECMG 30006KT
RJBB 230400Z 32010KT 9999 FEW025 BKN180 26/18 Q1016 BECMG 30006KT
RJBB 230330Z 32008KT 9999 FEW020 BKN180 26/18 Q1016 BECMG 30006KT
RJBB 230300Z 32006KT 9999 FEW020 BKN180 26/19 Q1016 BECMG 30006KT
RJBB 230230Z 32006KT 9999 FEW020 BKN180 26/19 Q1017 BECMG 30006KT
RJBB 230200Z 36005KT 9999 FEW020 SCT180 BKN/// 26/20 Q1017 NOSIG
RJBB 230130Z 36007KT 9999 FEW020 SCT180 BKN/// 25/19 Q1017 NOSIG
RJBB 230100Z 36008KT 9999 FEW020 SCT/// 25/20 Q1017 NOSIG
RJBB 230030Z 02007KT 9999 FEW020 BKN180 24/20 Q1017 NOSIG
RJBB 230000Z 02007KT 9999 FEW020 BKN180 24/20 Q1017 NOSIG
RJBB 222330Z 03006KT 9999 FEW020 BKN180 23/19 Q1017 NOSIG
RJBB 222300Z 05007KT 9999 FEW030 BKN160 23/20 Q1016 NOSIG
RJBB 222230Z 05009KT 9999 FEW030 BKN160 22/19 Q1016 NOSIG
RJBB 222200Z 05007KT 9999 FEW030 BKN180 22/19 Q1016 NOSIG
RJBB 222130Z 05008KT 9999 FEW030 BKN180 21/19 Q1016 NOSIG
RJBB 222100Z 06007KT 9999 FEW045 SCT/// 21/19 Q1016 NOSIG
RJBB 222030Z AUTO 06008KT 9999 FEW046 SCT220 21/19 Q1016 NOSIG
RJBB 222000Z AUTO 06007KT 9999 SCT046 SCT190 21/19 Q1015 NOSIG
RJBB 221830Z AUTO 07007KT 9999 NCD 22/19 Q1015 NOSIG